Time,TemperatureF,DewpointF,PressureIn,WindDirection,WindDirectionDegrees,WindSpeedMPH,WindSpeedGustMPH,Humidity,HourlyPrecipIn,Conditions,Clouds,dailyrainin,SoftwareType,DateUTC
2013-02-11 02:32:00,14.0,12.0,-100.00,ENE,70,1.0,2.0,90,-99.99,,,-99.99,,2013-02-11 07:32:00,
2013-02-11 03:01:00,14.0,12.0,-100.00,WNW,300,0.0,1.0,90,-99.99,,,-99.99,,2013-02-11 08:01:00,
2013-02-11 03:11:00,15.0,12.0,-100.00,ENE,65,0.0,0.0,90,-99.99,,,-99.99,,2013-02-11 08:11:00,
2013-02-11 03:22:00,14.0,11.0,-100.00,West,275,1.0,2.0,89,-99.99,,,-99.99,,2013-02-11 08:22:00,
2013-02-11 03:32:00,15.0,13.0,-100.00,ESE,105,0.0,1.0,90,-99.99,,,-99.99,,2013-02-11 08:32:00,
2013-02-11 03:42:00,15.0,13.0,-100.00,WNW,290,1.0,2.0,90,-99.99,,,-99.99,,2013-02-11 08:42:00,
2013-02-11 03:52:00,16.0,14.0,-100.00,West,280,1.0,2.0,90,-99.99,,,-99.99,,2013-02-11 08:52:00,
2013-02-11 04:02:00,17.0,14.0,-100.00,NW,310,1.0,2.0,88,-99.99,,,-99.99,,2013-02-11 09:02:00,
2013-02-11 04:12:00,17.0,15.0,-100.00,NW,325,0.0,1.0,89,-99.99,,,-99.99,,2013-02-11 09:12:00,
2013-02-11 04:22:00,17.0,14.0,-100.00,SSW,195,0.0,1.0,88,-99.99,,,-99.99,,2013-02-11 09:22:00,
2013-02-11 04:30:00,19.0,15.0,-100.00,WNW,290,1.0,2.0,87,-99.99,,,-99.99,,2013-02-11 09:30:00,
2013-02-11 04:32:00,17.0,14.0,-100.00,WNW,295,0.0,1.0,88,-99.99,,,-99.99,,2013-02-11 09:32:00,
2013-02-11 04:42:00,17.0,15.0,-100.00,WNW,285,1.0,2.0,89,-99.99,,,-99.99,,2013-02-11 09:42:00,
2013-02-11 04:52:00,18.0,15.0,-100.00,West,280,0.0,1.0,88,-99.99,,,-99.99,,2013-02-11 09:52:00,
2013-02-11 05:00:00,19.0,15.0,-100.00,West,280,1.0,1.0,86,-99.99,,,-99.99,,2013-02-11 10:00:00,
2013-02-11 05:02:00,18.0,15.0,-100.00,West,280,0.0,1.0,88,-99.99,,,-99.99,,2013-02-11 10:02:00,
2013-02-11 05:11:00,19.0,15.0,-100.00,WNW,290,1.0,2.0,87,-99.99,,,-99.99,,2013-02-11 10:11:00,
2013-02-11 05:21:00,19.0,15.0,-100.00,WNW,290,1.0,2.0,87,-99.99,,,-99.99,,2013-02-11 10:21:00,
2013-02-11 05:42:00,19.0,15.0,-100.00,West,280,1.0,1.0,86,-99.99,,,-99.99,,2013-02-11 10:42:00,
2013-02-11 05:52:00,19.0,15.0,-100.00,West,280,1.0,1.0,86,-99.99,,,-99.99,,2013-02-11 10:52:00,
2013-02-11 07:12:00,21.0,16.0,-100.00,NNW,340,1.0,2.0,83,-99.99,,,-99.99,,2013-02-11 12:12:00,
2013-02-11 07:22:00,23.0,18.0,-100.00,East,95,0.0,3.0,82,-99.99,,,-99.99,,2013-02-11 12:22:00,
2013-02-11 07:32:00,23.0,18.0,-100.00,ESE,115,0.0,3.0,80,-99.99,,,-99.99,,2013-02-11 12:32:00,
2013-02-11 07:42:00,22.0,17.0,-100.00,SSW,210,0.0,1.0,82,-99.99,,,-99.99,,2013-02-11 12:42:00,
2013-02-11 07:52:00,23.0,18.0,-100.00,WNW,285,0.0,5.0,82,-99.99,,,-99.99,,2013-02-11 12:52:00,
2013-02-11 08:02:00,24.0,18.0,-100.00,West,260,1.0,5.0,80,-99.99,,,-99.99,,2013-02-11 13:02:00,
2013-02-11 08:12:00,23.0,18.0,-100.00,WSW,250,0.0,2.0,80,-99.99,,,-99.99,,2013-02-11 13:12:00,
2013-02-11 08:22:00,24.0,19.0,-100.00,SW,235,0.0,1.0,80,-99.99,,,-99.99,,2013-02-11 13:22:00,
2013-02-11 08:33:00,25.0,19.0,-100.00,North,0,1.0,2.0,79,-99.99,,,-99.99,,2013-02-11 13:33:00,
2013-02-11 08:42:00,27.0,20.0,-100.00,NNW,345,1.0,2.0,76,-99.99,,,-99.99,,2013-02-11 13:42:00,
2013-02-11 08:52:00,27.0,20.0,-100.00,WSW,250,0.0,2.0,76,-99.99,,,-99.99,,2013-02-11 13:52:00,
2013-02-11 09:02:00,27.0,20.0,-100.00,SW,225,2.0,3.0,73,-99.99,,,-99.99,,2013-02-11 14:02:00,
2013-02-11 09:12:00,27.0,20.0,-100.00,WNW,285,1.0,5.0,72,-99.99,,,-99.99,,2013-02-11 14:12:00,
2013-02-11 09:22:00,28.0,20.0,-100.00,SW,235,2.0,2.0,73,-99.99,,,-99.99,,2013-02-11 14:22:00,
2013-02-11 09:33:00,28.0,21.0,-100.00,ESE,110,1.0,2.0,75,-99.99,,,-99.99,,2013-02-11 14:33:00,
2013-02-11 09:42:00,28.0,22.0,-100.00,WNW,285,1.0,2.0,78,-99.99,,,-99.99,,2013-02-11 14:42:00,
2013-02-11 09:52:00,29.0,24.0,-100.00,WNW,290,2.0,6.0,81,-99.99,,,-99.99,,2013-02-11 14:52:00,
2013-02-11 10:02:00,30.0,26.0,-100.00,WNW,285,5.0,7.0,85,-99.99,,,-99.99,,2013-02-11 15:02:00,
2013-02-11 10:30:00,34.0,32.0,-100.00,WNW,285,3.0,9.0,92,-99.99,,,-99.99,,2013-02-11 15:30:00,
2013-02-11 10:42:00,33.0,30.0,-100.00,WNW,290,5.0,13.0,89,-99.99,,,-99.99,,2013-02-11 15:42:00,
2013-02-11 10:52:00,33.0,30.0,-100.00,WNW,300,5.0,10.0,90,-99.99,,,-99.99,,2013-02-11 15:52:00,
2013-02-11 11:02:00,33.0,30.0,-100.00,WNW,300,5.0,10.0,90,-99.99,,,-99.99,,2013-02-11 16:02:00,
2013-02-11 11:12:00,34.0,32.0,-100.00,WNW,285,3.0,9.0,92,-99.99,,,-99.99,,2013-02-11 16:12:00,
2013-02-11 11:22:00,34.0,32.0,-100.00,WNW,285,3.0,9.0,92,-99.99,,,-99.99,,2013-02-11 16:22:00,
2013-02-11 12:32:00,36.0,35.0,-100.00,East,80,1.0,7.0,95,-99.99,,,-99.99,,2013-02-11 17:32:00,
2013-02-11 12:42:00,37.0,36.0,-100.00,WNW,295,2.0,6.0,95,-99.99,,,-99.99,,2013-02-11 17:42:00,
2013-02-11 12:52:00,37.0,36.0,-100.00,West,280,3.0,6.0,95,-99.99,,,-99.99,,2013-02-11 17:52:00,
2013-02-11 13:02:00,37.0,36.0,-100.00,WSW,250,1.0,5.0,96,-99.99,,,-99.99,,2013-02-11 18:02:00,
2013-02-11 13:11:00,37.0,36.0,-100.00,West,270,1.0,3.0,96,-99.99,,,-99.99,,2013-02-11 18:11:00,
2013-02-11 13:30:00,37.0,36.0,-100.00,ESE,105,1.0,2.0,97,-99.99,,,-99.99,,2013-02-11 18:30:00,
2013-02-11 13:32:00,38.0,37.0,-100.00,SW,220,1.0,5.0,97,-99.99,,,-99.99,,2013-02-11 18:32:00,
2013-02-11 14:02:00,38.0,38.0,-100.00,WSW,250,1.0,3.0,97,-99.99,,,-99.99,,2013-02-11 19:02:00,
2013-02-11 14:12:00,37.0,36.0,-100.00,ESE,105,1.0,2.0,97,-99.99,,,-99.99,,2013-02-11 19:12:00,
2013-02-11 14:22:00,37.0,36.0,-100.00,ESE,105,1.0,2.0,97,-99.99,,,-99.99,,2013-02-11 19:22:00,
2013-02-11 15:02:00,42.0,42.0,-100.00,WNW,290,6.0,10.0,98,-99.99,,,-99.99,,2013-02-11 20:02:00,
2013-02-11 15:12:00,43.0,43.0,-100.00,WNW,290,6.0,12.0,98,-99.99,,,-99.99,,2013-02-11 20:12:00,
2013-02-11 15:22:00,44.0,43.0,-100.00,WNW,295,7.0,13.0,98,-99.99,,,-99.99,,2013-02-11 20:22:00,
2013-02-11 15:32:00,44.0,43.0,-100.00,WNW,300,5.0,10.0,97,-99.99,,,-99.99,,2013-02-11 20:32:00,
2013-02-11 15:42:00,44.0,44.0,-100.00,NNW,330,5.0,9.0,98,-99.99,,,-99.99,,2013-02-11 20:42:00,
2013-02-11 15:52:00,45.0,44.0,-100.00,NW,305,5.0,8.0,97,-99.99,,,-99.99,,2013-02-11 20:52:00,
2013-02-11 16:00:00,44.0,44.0,-100.00,North,355,2.0,5.0,98,-99.99,,,-99.99,,2013-02-11 21:00:00,
2013-02-11 16:02:00,45.0,44.0,-100.00,NW,305,3.0,10.0,97,-99.99,,,-99.99,,2013-02-11 21:02:00,
2013-02-11 16:12:00,44.0,44.0,-100.00,NW,310,3.0,7.0,98,-99.99,,,-99.99,,2013-02-11 21:12:00,
2013-02-11 16:22:00,45.0,44.0,-100.00,NW,305,2.0,6.0,98,-99.99,,,-99.99,,2013-02-11 21:22:00,
2013-02-11 16:32:00,45.0,44.0,-100.00,NNW,335,3.0,6.0,99,-99.99,,,-99.99,,2013-02-11 21:32:00,
2013-02-11 16:42:00,44.0,44.0,-100.00,North,355,2.0,5.0,98,-99.99,,,-99.99,,2013-02-11 21:42:00,
2013-02-11 16:52:00,44.0,44.0,-100.00,North,355,2.0,5.0,98,-99.99,,,-99.99,,2013-02-11 21:52:00,
2013-02-11 19:12:00,37.0,37.0,-100.00,SE,135,1.0,2.0,99,-99.99,,,-99.99,,2013-02-12 00:12:00,
2013-02-11 19:22:00,37.0,36.0,-100.00,WSW,240,1.0,3.0,99,-99.99,,,-99.99,,2013-02-12 00:22:00,
2013-02-11 19:42:00,37.0,37.0,-100.00,South,175,0.0,2.0,99,-99.99,,,-99.99,,2013-02-12 00:42:00,
2013-02-11 19:52:00,35.0,35.0,-100.00,West,265,0.0,2.0,99,-99.99,,,-99.99,,2013-02-12 00:52:00,
2013-02-11 20:22:00,35.0,35.0,-100.00,West,275,1.0,2.0,99,-99.99,,,-99.99,,2013-02-12 01:22:00,
2013-02-11 20:32:00,36.0,36.0,-100.00,WNW,300,0.0,2.0,99,-99.99,,,-99.99,,2013-02-12 01:32:00,
2013-02-11 20:42:00,36.0,36.0,-100.00,East,100,0.0,1.0,99,-99.99,,,-99.99,,2013-02-12 01:42:00,
2013-02-11 22:02:00,43.0,43.0,-100.00,North,350,2.0,7.0,100,-99.99,,,-99.99,,2013-02-12 03:02:00,
2013-02-11 22:11:00,43.0,43.0,-100.00,North,355,3.0,8.0,100,-99.99,,,-99.99,,2013-02-12 03:11:00,
2013-02-11 22:21:00,44.0,42.0,-100.00,North,350,2.0,8.0,93,-99.99,,,-99.99,,2013-02-12 03:21:00,
2013-02-11 22:30:00,43.0,43.0,-100.00,NE,45,2.0,8.0,99,-99.99,,,-99.99,,2013-02-12 03:30:00,
2013-02-11 22:32:00,44.0,44.0,-100.00,NW,315,2.0,8.0,100,-99.99,,,-99.99,,2013-02-12 03:32:00,
2013-02-11 22:42:00,43.0,43.0,-100.00,WSW,245,1.0,5.0,100,-99.99,,,-99.99,,2013-02-12 03:42:00,
2013-02-11 22:51:00,43.0,43.0,-100.00,NE,35,3.0,7.0,99,-99.99,,,-99.99,,2013-02-12 03:51:00,
2013-02-11 23:01:00,43.0,43.0,-100.00,NE,35,3.0,7.0,99,-99.99,,,-99.99,,2013-02-12 04:01:00,
2013-02-11 23:11:00,43.0,43.0,-100.00,NE,45,2.0,8.0,99,-99.99,,,-99.99,,2013-02-12 04:11:00,
2013-02-11 23:21:00,43.0,43.0,-100.00,NE,45,2.0,8.0,99,-99.99,,,-99.99,,2013-02-12 04:21:00,